Time;durP1;ratioP1;P1;durP2;ratioP2;P2;SDS_P1;SDS_P2;PMS_P1;PMS_P2;Temp;Humidity;BMP_temperature;BMP_pressure;BME280_temperature;BME280_humidity;BME280_pressure;Samples;Min_cycle;Max_cycle;Signal;HPM_P1;HPM_P2
2023/12/25 00:01:51;;;;;;;5.30;1.80;;;;;;;11.23;32.76;99221.06;105933;1257;72955;-58
2023/12/25 00:04:18;;;;;;;7.80;2.10;;;;;;;11.27;32.77;99223.29;105977;1260;61392;-62
2023/12/25 00:06:46;;;;;;;5.30;1.50;;;;;;;11.37;32.76;99222.79;105171;1257;62554;-58
2023/12/25 00:09:14;;;;;;;7.10;2.20;;;;;;;11.48;32.66;99224.86;105204;1262;59753;-58
2023/12/25 00:11:41;;;;;;;5.40;2.00;;;;;;;11.57;32.57;99227.90;105201;1260;59682;-61
2023/12/25 00:14:09;;;;;;;7.00;2.20;;;;;;;11.69;32.55;99226.20;105087;1260;62917;-58
2023/12/25 00:16:37;;;;;;;6.40;2.50;;;;;;;11.78;32.37;99226.55;105373;1263;60131;-56
2023/12/25 00:19:04;;;;;;;9.10;3.20;;;;;;;11.79;32.35;99223.05;105412;1258;63741;-60
2023/12/25 00:21:33;;;;;;;9.00;2.30;;;;;;;11.82;32.29;99217.98;105367;1260;59730;-59
2023/12/25 00:24:00;;;;;;;7.30;2.50;;;;;;;11.85;32.19;99212.23;105626;1257;60477;-58
2023/12/25 00:26:28;;;;;;;6.10;2.00;;;;;;;11.84;32.14;99208.31;105316;1260;64120;-59
2023/12/25 00:29:02;;;;;;;7.40;2.20;;;;;;;11.81;32.05;99196.14;105240;1262;61435;-59
2023/12/25 00:31:30;;;;;;;6.60;1.70;;;;;;;11.75;32.11;99182.38;105639;1257;64369;-58
2023/12/25 00:33:57;;;;;;;4.80;1.10;;;;;;;11.70;32.21;99172.64;105242;1257;59699;-58
2023/12/25 00:36:25;;;;;;;6.60;2.00;;;;;;;11.66;32.26;99170.23;106413;1256;59807;-57
2023/12/25 00:38:53;;;;;;;6.20;2.00;;;;;;;11.63;32.27;99160.45;105823;1260;64208;-57
2023/12/25 00:41:22;;;;;;;6.70;2.70;;;;;;;11.61;32.26;99144.30;105118;1260;61543;-57
2023/12/25 00:43:50;;;;;;;7.60;2.30;;;;;;;11.59;32.37;99142.91;105766;1256;63788;-54
2023/12/25 00:46:18;;;;;;;6.00;1.80;;;;;;;11.58;32.45;99146.16;104839;1257;59679;-54
2023/12/25 00:48:45;;;;;;;7.60;3.10;;;;;;;11.54;32.41;99146.20;104987;1257;59635;-54
2023/12/25 00:51:13;;;;;;;11.10;2.90;;;;;;;11.49;32.53;99140.63;105055;1257;62824;-54
2023/12/25 00:53:41;;;;;;;10.00;2.70;;;;;;;11.43;32.55;99133.36;105025;1257;61377;-54
2023/12/25 00:56:09;;;;;;;6.20;2.00;;;;;;;11.38;32.67;99130.41;105126;1257;63672;-56
2023/12/25 00:58:37;;;;;;;6.70;1.90;;;;;;;11.36;32.67;99126.30;104977;1257;60194;-57
2023/12/25 01:01:05;;;;;;;8.40;3.50;;;;;;;11.36;32.72;99125.08;105084;1260;59647;-57
2023/12/25 01:03:33;;;;;;;5.20;1.60;;;;;;;11.38;32.72;99129.13;105259;1259;64561;-58
2023/12/25 01:06:03;;;;;;;7.90;2.40;;;;;;;11.36;32.69;99120.73;104916;1262;60173;-58
2023/12/25 01:08:31;;;;;;;6.60;2.00;;;;;;;11.40;32.73;99103.80;105373;1264;63936;-61
2023/12/25 01:11:01;;;;;;;8.60;2.90;;;;;;;11.53;32.64;99095.95;105039;1258;59644;-56
2023/12/25 01:13:29;;;;;;;8.80;2.10;;;;;;;11.65;32.57;99091.88;105553;1257;59775;-56
2023/12/25 01:15:57;;;;;;;7.40;3.70;;;;;;;11.76;32.44;99084.91;105009;1258;62884;-56
2023/12/25 01:18:24;;;;;;;6.60;1.90;;;;;;;11.87;32.40;99074.82;105213;1257;61316;-57
2023/12/25 01:20:52;;;;;;;6.30;2.00;;;;;;;11.94;32.33;99057.88;105209;1261;62534;-56
2023/12/25 01:23:20;;;;;;;10.40;3.20;;;;;;;11.98;32.26;99053.44;105911;1257;59753;-56
2023/12/25 01:25:48;;;;;;;5.90;2.10;;;;;;;11.97;32.23;99058.83;105141;1257;59752;-57
2023/12/25 01:28:16;;;;;;;7.40;2.50;;;;;;;11.95;32.19;99072.09;105255;1260;75147;-56
2023/12/25 01:30:43;;;;;;;4.90;1.60;;;;;;;11.92;32.09;99063.38;105122;1261;60091;-57
2023/12/25 01:33:11;;;;;;;7.20;2.90;;;;;;;11.90;32.28;99052.31;105097;1261;62532;-56
2023/12/25 01:35:39;;;;;;;6.30;2.90;;;;;;;11.89;32.39;99053.17;105189;1257;59758;-56
2023/12/25 01:38:07;;;;;;;7.10;2.30;;;;;;;11.89;32.33;99052.94;105150;1257;60385;-57
2023/12/25 01:40:36;;;;;;;6.20;2.50;;;;;;;11.89;32.40;99039.67;105271;1258;62921;-56
2023/12/25 01:43:04;;;;;;;7.30;2.90;;;;;;;11.88;32.49;99041.64;105504;1260;60196;-56
2023/12/25 01:45:31;;;;;;;9.30;3.10;;;;;;;11.85;32.57;99037.19;105176;1258;65043;-56
2023/12/25 01:47:59;;;;;;;4.90;1.50;;;;;;;11.85;32.68;99034.58;105174;1257;60562;-55
2023/12/25 01:50:27;;;;;;;6.80;2.70;;;;;;;11.85;32.77;99030.17;105612;1258;60620;-55
2023/12/25 01:52:55;;;;;;;7.70;2.60;;;;;;;11.85;32.91;99023.52;105512;1263;65665;-58
2023/12/25 01:55:23;;;;;;;5.60;2.40;;;;;;;11.85;33.17;99019.45;105162;1258;61356;-57
2023/12/25 01:57:50;;;;;;;4.90;2.50;;;;;;;11.87;33.32;99017.19;105817;1257;63728;-56
2023/12/25 02:00:18;;;;;;;6.90;2.20;;;;;;;11.92;33.49;99008.91;105091;1263;60526;-56
2023/12/25 02:02:45;;;;;;;6.60;2.40;;;;;;;11.99;33.67;99003.77;105125;1258;61495;-56
2023/12/25 02:05:13;;;;;;;5.40;2.00;;;;;;;12.12;33.82;98999.25;105169;1257;63830;-55
2023/12/25 02:07:42;;;;;;;8.20;3.00;;;;;;;12.25;33.80;98993.39;105302;1257;61893;-56
2023/12/25 02:10:10;;;;;;;8.80;2.60;;;;;;;12.31;33.95;98997.51;105365;1260;62488;-56
2023/12/25 02:12:37;;;;;;;7.90;2.30;;;;;;;12.36;34.11;98993.84;105281;1256;60534;-56
2023/12/25 02:15:05;;;;;;;9.50;1.90;;;;;;;12.37;34.18;98990.00;105164;1260;60524;-55
2023/12/25 02:17:33;;;;;;;7.10;3.20;;;;;;;12.38;34.38;98984.96;105354;1258;64953;-55
2023/12/25 02:20:01;;;;;;;8.10;2.10;;;;;;;12.39;34.64;98978.50;105128;1261;60510;-56
2023/12/25 02:22:30;;;;;;;7.20;2.50;;;;;;;12.37;34.93;98973.17;105072;1258;63685;-59
2023/12/25 02:25:07;;;;;;;7.50;2.60;;;;;;;12.33;35.14;98964.46;105626;1261;60559;-58
2023/12/25 02:27:35;;;;;;;9.20;2.50;;;;;;;12.28;35.47;98957.42;105535;1257;60514;-57
2023/12/25 02:30:03;;;;;;;8.70;2.00;;;;;;;12.24;35.62;98956.58;105641;1257;63635;-56
2023/12/25 02:32:31;;;;;;;5.20;2.00;;;;;;;12.28;35.72;98950.20;105550;1260;61636;-56
2023/12/25 02:34:59;;;;;;;5.20;1.70;;;;;;;12.37;35.81;98945.01;105556;1257;62436;-57
2023/12/25 02:37:26;;;;;;;5.60;1.60;;;;;;;12.48;35.70;98937.24;106241;1257;60561;-56
2023/12/25 02:39:55;;;;;;;6.90;2.30;;;;;;;12.59;35.79;98920.02;105687;1259;60458;-57
2023/12/25 02:42:23;;;;;;;5.70;2.90;;;;;;;12.70;35.73;98914.27;105192;1257;64895;-56
2023/12/25 02:44:51;;;;;;;6.30;2.00;;;;;;;12.79;35.66;98911.82;105225;1257;61374;-57
2023/12/25 02:47:18;;;;;;;9.10;1.60;;;;;;;12.88;35.57;98910.96;105530;1259;62514;-57
2023/12/25 02:49:46;;;;;;;8.30;3.00;;;;;;;12.91;35.62;98906.77;105190;1259;60505;-57
2023/12/25 02:52:14;;;;;;;5.70;2.30;;;;;;;12.93;35.78;98902.17;105230;1258;60389;-57
2023/12/25 02:54:42;;;;;;;6.40;2.50;;;;;;;12.95;35.61;98898.23;105152;1257;64888;-58
2023/12/25 02:57:09;;;;;;;6.00;2.70;;;;;;;12.96;35.69;98885.23;105230;1262;60556;-56
2023/12/25 02:59:38;;;;;;;7.30;2.00;;;;;;;12.93;35.71;98880.02;105287;1258;63849;-57
2023/12/25 03:02:05;;;;;;;4.70;1.80;;;;;;;12.88;35.80;98878.99;105194;1260;60482;-57
2023/12/25 03:04:33;;;;;;;8.00;2.50;;;;;;;12.87;35.86;98881.26;105339;1262;60592;-57
2023/12/25 03:07:00;;;;;;;4.90;1.50;;;;;;;12.86;35.87;98879.17;105273;1260;64870;-58
2023/12/25 03:09:28;;;;;;;7.60;1.50;;;;;;;12.89;36.01;98875.66;105652;1256;60723;-55
2023/12/25 03:11:56;;;;;;;6.20;1.60;;;;;;;12.94;35.99;98868.64;105798;1257;63877;-58
2023/12/25 03:14:23;;;;;;;6.20;2.10;;;;;;;13.00;36.09;98865.75;105621;1256;60562;-59
2023/12/25 03:16:51;;;;;;;5.70;1.80;;;;;;;13.09;36.18;98858.77;105874;1256;60590;-58
2023/12/25 03:19:18;;;;;;;4.20;1.30;;;;;;;13.21;36.29;98854.57;105978;1259;64918;-57
2023/12/25 03:21:47;;;;;;;5.40;1.60;;;;;;;13.34;36.24;98845.51;105299;1258;61348;-59
2023/12/25 03:24:15;;;;;;;6.20;2.00;;;;;;;13.43;36.18;98843.13;105207;1257;63743;-57
2023/12/25 03:26:43;;;;;;;11.30;3.70;;;;;;;13.47;36.17;98840.23;105209;1257;61736;-57
2023/12/25 03:29:11;;;;;;;6.00;2.50;;;;;;;13.51;36.21;98836.05;105274;1256;60355;-57
2023/12/25 03:31:38;;;;;;;5.90;2.50;;;;;;;13.55;36.27;98828.98;105207;1256;63644;-59
2023/12/25 03:34:06;;;;;;;6.80;2.00;;;;;;;13.58;36.17;98816.52;105451;1256;60433;-57
2023/12/25 03:36:34;;;;;;;5.70;2.40;;;;;;;13.57;36.07;98802.55;105286;1260;63733;-59
2023/12/25 03:39:01;;;;;;;5.40;1.80;;;;;;;13.52;35.99;98793.10;105097;1260;60539;-57
2023/12/25 03:41:30;;;;;;;5.90;1.70;;;;;;;13.43;35.95;98781.96;105664;1260;60462;-55
2023/12/25 03:43:58;;;;;;;6.40;2.50;;;;;;;13.35;36.17;98774.31;105094;1258;63679;-55
2023/12/25 03:46:25;;;;;;;9.30;3.20;;;;;;;13.28;36.25;98762.21;105107;1257;61850;-55
2023/12/25 03:48:53;;;;;;;7.30;2.10;;;;;;;13.29;36.31;98757.30;105160;1258;63799;-57
2023/12/25 03:51:22;;;;;;;10.50;3.00;;;;;;;13.34;36.30;98748.85;105809;1257;61011;-57
2023/12/25 03:53:49;;;;;;;6.50;1.90;;;;;;;13.36;36.62;98732.96;105203;1262;60486;-57
2023/12/25 03:56:17;;;;;;;9.30;3.30;;;;;;;13.37;36.97;98717.29;105242;1260;64987;-57
2023/12/25 03:58:45;;;;;;;6.20;1.60;;;;;;;13.40;37.28;98707.69;105161;1257;61346;-59
2023/12/25 04:01:14;;;;;;;6.80;3.20;;;;;;;13.49;37.25;98703.42;105302;1257;63853;-58
2023/12/25 04:03:42;;;;;;;9.00;3.60;;;;;;;13.52;37.16;98699.13;105352;1257;59228;-59
2023/12/25 04:06:10;;;;;;;6.90;2.60;;;;;;;13.53;37.18;98686.04;105234;1257;60425;-59
2023/12/25 04:08:38;;;;;;;9.50;3.30;;;;;;;13.49;37.09;98677.30;105306;1257;64909;-58
2023/12/25 04:11:06;;;;;;;8.40;2.60;;;;;;;13.40;37.28;98674.41;105376;1257;61345;-57
2023/12/25 04:13:34;;;;;;;12.70;4.20;;;;;;;13.32;37.49;98675.00;105130;1261;62705;-59
2023/12/25 04:16:02;;;;;;;8.20;3.70;;;;;;;13.28;37.64;98666.24;105587;1259;60603;-59
2023/12/25 04:18:29;;;;;;;8.10;3.20;;;;;;;13.26;37.59;98666.46;105482;1261;60350;-57
2023/12/25 04:20:57;;;;;;;6.30;2.40;;;;;;;13.27;37.62;98658.52;105133;1262;64882;-59
2023/12/25 04:23:25;;;;;;;8.50;3.10;;;;;;;13.32;37.60;98654.70;104988;1263;61474;-59
2023/12/25 04:25:52;;;;;;;7.40;2.40;;;;;;;13.41;37.62;98651.58;105046;1262;71428;-58
2023/12/25 04:28:20;;;;;;;8.90;2.60;;;;;;;13.46;37.60;98650.92;105113;1262;60560;-59
2023/12/25 04:30:47;;;;;;;6.00;2.70;;;;;;;13.46;37.59;98648.67;105115;1256;61731;-60
2023/12/25 04:33:15;;;;;;;6.50;2.70;;;;;;;13.40;37.55;98643.73;105029;1257;65382;-61
2023/12/25 04:35:43;;;;;;;8.60;3.90;;;;;;;13.32;37.69;98638.77;105103;1262;60411;-62
2023/12/25 04:38:11;;;;;;;8.40;2.30;;;;;;;13.25;37.80;98636.67;105083;1257;64206;-62
2023/12/25 04:40:39;;;;;;;9.90;3.50;;;;;;;13.21;37.86;98633.61;105182;1257;60581;-61
2023/12/25 04:43:06;;;;;;;11.30;4.20;;;;;;;13.23;37.84;98636.16;105391;1256;60666;-60
2023/12/25 04:45:38;;;;;;;9.70;2.80;;;;;;;13.30;37.76;98622.31;105108;1263;64898;-58
2023/12/25 04:48:06;;;;;;;3.50;1.60;;;;;;;13.38;37.89;98620.04;105214;1257;61395;-58
2023/12/25 04:50:34;;;;;;;8.90;3.20;;;;;;;13.43;37.88;98616.94;105408;1257;63723;-58
2023/12/25 04:53:02;;;;;;;7.70;3.90;;;;;;;13.44;37.92;98616.09;105157;1261;60565;-58
2023/12/25 04:55:31;;;;;;;7.80;4.00;;;;;;;13.40;38.03;98606.41;105591;1260;60494;-62
2023/12/25 04:58:01;;;;;;;13.50;6.00;;;;;;;13.39;38.04;98600.87;105261;1256;64985;-64
2023/12/25 05:00:30;;;;;;;8.30;3.00;;;;;;;13.40;38.01;98590.69;105589;1260;60463;-64
2023/12/25 05:02:59;;;;;;;8.60;4.30;;;;;;;13.45;37.92;98581.84;105127;1257;63785;-58
2023/12/25 05:05:27;;;;;;;8.40;3.40;;;;;;;13.53;37.90;98581.05;105534;1263;60559;-65
2023/12/25 05:07:55;;;;;;;7.50;2.40;;;;;;;13.62;37.82;98571.02;105202;1257;60613;-61
2023/12/25 05:10:23;;;;;;;5.70;1.60;;;;;;;13.69;37.81;98561.73;105198;1257;65104;-61
2023/12/25 05:12:51;;;;;;;5.10;1.90;;;;;;;13.72;37.85;98566.23;105242;1258;60348;-66
2023/12/25 05:15:18;;;;;;;8.70;2.40;;;;;;;13.68;37.91;98548.35;105233;1257;63782;-55
2023/12/25 05:17:46;;;;;;;5.20;1.70;;;;;;;13.68;38.06;98535.02;105829;1260;60563;-73
2023/12/25 05:20:14;;;;;;;7.70;3.80;;;;;;;13.69;37.99;98541.73;105193;1262;60463;-61
2023/12/25 05:22:41;;;;;;;4.60;1.60;;;;;;;13.70;37.97;98545.81;105291;1257;63895;-69
2023/12/25 05:25:09;;;;;;;5.50;1.70;;;;;;;13.79;37.98;98533.69;105210;1261;61391;-69
2023/12/25 05:27:36;;;;;;;6.40;2.10;;;;;;;13.87;37.87;98533.53;105140;1258;64294;-68
2023/12/25 05:30:05;;;;;;;5.80;1.40;;;;;;;13.90;37.84;98531.58;105171;1257;60678;-72
2023/12/25 05:32:35;;;;;;;4.10;1.40;;;;;;;13.94;37.83;98525.25;105480;1261;60568;-62
2023/12/25 05:35:04;;;;;;;6.60;4.30;;;;;;;13.94;37.83;98529.48;105443;1256;65529;-71
2023/12/25 05:37:32;;;;;;;6.60;2.30;;;;;;;13.96;37.89;98515.29;105723;1254;61339;-65
2023/12/25 05:40:00;;;;;;;5.20;2.00;;;;;;;13.91;37.94;98515.59;105342;1259;63158;-64
2023/12/25 05:42:27;;;;;;;4.10;1.50;;;;;;;13.88;37.98;98513.73;105751;1254;60401;-69
2023/12/25 05:44:55;;;;;;;7.40;2.00;;;;;;;13.93;38.03;98508.08;105290;1259;60721;-63
2023/12/25 05:47:23;;;;;;;5.10;1.30;;;;;;;14.04;37.94;98504.38;105367;1259;64959;-66
2023/12/25 05:49:52;;;;;;;4.90;1.50;;;;;;;14.14;37.96;98503.10;105979;1254;61564;-60
2023/12/25 05:52:19;;;;;;;3.80;1.30;;;;;;;14.21;37.90;98497.59;105890;1257;63783;-60
2023/12/25 05:54:47;;;;;;;5.60;1.80;;;;;;;14.26;37.81;98494.52;105276;1253;60575;-62
2023/12/25 05:57:16;;;;;;;5.90;1.50;;;;;;;14.26;37.79;98498.20;105289;1254;60453;-64
2023/12/25 05:59:43;;;;;;;5.10;1.90;;;;;;;14.24;37.81;98500.42;105315;1257;64939;-60
2023/12/25 06:02:11;;;;;;;4.50;2.10;;;;;;;14.26;37.80;98497.63;105334;1254;61845;-60
2023/12/25 06:04:39;;;;;;;4.40;1.80;;;;;;;14.35;37.77;98486.05;105333;1253;62489;-61
2023/12/25 06:07:07;;;;;;;2.80;0.80;;;;;;;14.43;37.68;98480.73;105482;1259;60488;-61
2023/12/25 06:09:35;;;;;;;5.20;1.70;;;;;;;14.47;37.66;98478.27;105348;1253;60473;-63
2023/12/25 06:12:04;;;;;;;3.60;1.30;;;;;;;14.49;37.72;98474.90;105579;1254;63764;-63
2023/12/25 06:14:33;;;;;;;7.60;1.50;;;;;;;14.46;37.76;98473.42;106386;1256;60516;-60
2023/12/25 06:17:00;;;;;;;4.50;1.40;;;;;;;14.48;37.75;98474.52;105701;1254;63942;-64
2023/12/25 06:19:28;;;;;;;4.90;1.80;;;;;;;14.51;37.68;98465.63;105227;1256;60574;-59
2023/12/25 06:21:56;;;;;;;5.30;1.70;;;;;;;14.58;37.62;98467.63;105232;1256;60555;-59
2023/12/25 06:24:23;;;;;;;3.80;1.10;;;;;;;14.65;37.71;98469.92;105206;1259;64931;-58
2023/12/25 06:26:51;;;;;;;5.70;1.90;;;;;;;14.71;37.57;98467.77;107432;1259;60163;-59
2023/12/25 06:29:18;;;;;;;13.50;6.00;;;;;;;14.75;37.67;98458.97;105279;1254;64241;-62
2023/12/25 06:31:49;;;;;;;14.00;7.00;;;;;;;14.75;37.62;98454.30;105418;1256;60566;-58
2023/12/25 06:34:16;;;;;;;5.40;2.10;;;;;;;14.75;37.58;98445.73;105285;1258;60398;-63
2023/12/25 06:36:44;;;;;;;4.90;1.80;;;;;;;14.73;37.69;98444.15;105334;1254;64984;-61
2023/12/25 06:39:12;;;;;;;6.30;1.60;;;;;;;14.85;37.70;98438.58;105379;1254;61353;-69
2023/12/25 06:41:40;;;;;;;5.80;2.30;;;;;;;14.94;37.57;98429.94;105428;1255;64269;-59
2023/12/25 06:44:07;;;;;;;6.30;2.50;;;;;;;14.97;37.59;98428.63;105339;1254;61082;-66
2023/12/25 06:46:36;;;;;;;6.00;2.90;;;;;;;15.02;37.53;98425.63;106380;1254;60572;-64
2023/12/25 06:49:03;;;;;;;8.00;3.20;;;;;;;15.03;37.51;98426.13;105360;1259;64923;-64
2023/12/25 06:51:34;;;;;;;5.00;1.50;;;;;;;14.99;37.59;98423.52;105355;1256;60466;-61
2023/12/25 06:54:02;;;;;;;6.10;2.60;;;;;;;14.96;37.70;98427.86;105293;1253;62495;-64
2023/12/25 06:56:30;;;;;;;6.90;2.00;;;;;;;15.04;37.64;98442.10;105706;1254;60491;-64
2023/12/25 06:58:57;;;;;;;5.80;2.30;;;;;;;15.10;37.63;98445.14;105371;1258;60269;-64
2023/12/25 07:01:25;;;;;;;4.50;1.50;;;;;;;15.18;37.59;98433.22;105377;1253;64922;-62
2023/12/25 07:03:52;;;;;;;4.10;1.20;;;;;;;15.25;37.62;98435.84;105370;1254;60689;-63
2023/12/25 07:06:20;;;;;;;5.70;2.00;;;;;;;15.29;37.55;98435.19;105270;1256;63790;-62
2023/12/25 07:08:48;;;;;;;5.00;2.40;;;;;;;15.32;37.56;98439.89;105314;1257;60515;-61
2023/12/25 07:11:16;;;;;;;5.50;1.90;;;;;;;15.36;37.61;98432.43;105407;1257;60457;-61
2023/12/25 07:13:43;;;;;;;5.20;1.60;;;;;;;15.37;37.72;98432.68;105362;1253;73861;-61
2023/12/25 07:16:21;;;;;;;4.50;1.50;;;;;;;15.44;37.61;98432.29;105331;1257;60477;-61
2023/12/25 07:18:52;;;;;;;7.80;3.10;;;;;;;15.56;37.52;98438.20;105353;1253;62591;-60
2023/12/25 07:21:21;;;;;;;5.70;1.50;;;;;;;15.66;37.39;98438.98;106100;1254;60652;-61
2023/12/25 07:23:48;;;;;;;6.20;1.80;;;;;;;15.75;37.32;98433.06;106033;1253;60306;-66
2023/12/25 07:26:17;;;;;;;4.80;2.10;;;;;;;15.75;37.38;98434.00;105309;1254;64851;-64
2023/12/25 07:28:45;;;;;;;7.60;4.60;;;;;;;15.81;37.33;98436.33;105351;1259;60539;-62
2023/12/25 07:31:14;;;;;;;5.30;1.40;;;;;;;15.84;37.29;98444.45;105228;1254;64198;-66
2023/12/25 07:33:42;;;;;;;8.60;2.80;;;;;;;15.85;37.20;98426.05;105448;1254;60501;-69
2023/12/25 07:36:10;;;;;;;7.40;1.60;;;;;;;15.84;37.28;98420.17;105263;1259;60424;-64
2023/12/25 07:38:38;;;;;;;9.10;4.40;;;;;;;15.90;37.28;98420.16;105271;1260;65346;-61
2023/12/25 07:41:09;;;;;;;9.50;3.50;;;;;;;15.98;37.26;98428.00;105673;1259;61409;-62
2023/12/25 07:43:37;;;;;;;5.80;2.10;;;;;;;16.09;37.39;98420.02;105489;1257;63751;-64
2023/12/25 07:46:08;;;;;;;8.20;4.00;;;;;;;16.12;37.40;98425.77;105600;1254;60553;-61
2023/12/25 07:48:36;;;;;;;4.60;1.70;;;;;;;16.12;37.51;98429.98;105407;1256;60523;-63
2023/12/25 07:51:04;;;;;;;5.50;1.60;;;;;;;16.14;37.44;98421.93;105318;1254;65004;-61
2023/12/25 07:53:32;;;;;;;5.00;1.90;;;;;;;16.17;37.50;98423.23;105590;1253;61377;-60
2023/12/25 07:56:00;;;;;;;2.90;1.10;;;;;;;16.17;37.51;98423.04;105284;1254;63867;-60
2023/12/25 07:58:27;;;;;;;4.50;1.20;;;;;;;16.25;37.56;98421.58;105237;1257;60556;-61
2023/12/25 08:00:55;;;;;;;4.80;1.80;;;;;;;16.34;37.62;98422.18;105261;1257;60484;-61
2023/12/25 08:03:22;;;;;;;4.20;1.60;;;;;;;16.42;37.49;98414.20;105300;1253;65064;-68
2023/12/25 08:05:50;;;;;;;8.30;3.60;;;;;;;16.48;37.42;98417.23;105234;1254;61308;-66
2023/12/25 08:08:18;;;;;;;4.60;1.40;;;;;;;16.51;37.60;98415.60;105967;1254;63840;-63
2023/12/25 08:10:46;;;;;;;4.00;1.60;;;;;;;16.50;37.61;98411.85;105423;1257;60555;-66
2023/12/25 08:13:17;;;;;;;4.00;1.40;;;;;;;16.52;37.73;98416.70;105402;1259;60296;-62
2023/12/25 08:15:46;;;;;;;6.50;2.20;;;;;;;16.50;37.65;98420.00;105426;1258;64913;-68
2023/12/25 08:18:14;;;;;;;3.90;1.20;;;;;;;16.55;37.55;98422.52;105321;1259;61335;-70
2023/12/25 08:20:42;;;;;;;3.40;1.20;;;;;;;16.62;37.73;98413.80;105204;1257;63727;-56
2023/12/25 08:23:09;;;;;;;4.70;1.50;;;;;;;16.74;37.61;98411.59;105279;1254;60561;-58
2023/12/25 08:25:38;;;;;;;6.80;1.70;;;;;;;16.84;37.48;98411.15;105162;1254;60395;-57
2023/12/25 08:28:05;;;;;;;6.70;3.40;;;;;;;16.89;37.46;98407.96;105533;1258;64937;-60
2023/12/25 08:30:33;;;;;;;5.30;2.00;;;;;;;16.96;37.29;98405.67;105255;1254;61339;-61
2023/12/25 08:33:00;;;;;;;4.20;1.30;;;;;;;17.01;37.21;98402.58;105265;1257;62499;-60
2023/12/25 08:35:28;;;;;;;6.50;3.70;;;;;;;17.03;37.32;98400.68;105186;1258;60522;-61
2023/12/25 08:37:56;;;;;;;4.80;1.60;;;;;;;17.10;37.17;98394.85;105800;1256;60457;-61
2023/12/25 08:40:25;;;;;;;10.50;5.40;;;;;;;17.16;37.12;98396.61;105169;1253;63742;-61
2023/12/25 08:42:53;;;;;;;6.20;2.20;;;;;;;17.22;37.19;98404.62;106019;1254;60549;-60
2023/12/25 08:45:21;;;;;;;9.80;6.50;;;;;;;17.36;37.06;98401.50;105264;1253;73909;-61
2023/12/25 08:47:51;;;;;;;6.90;2.70;;;;;;;17.43;36.92;98398.02;105335;1254;60518;-59
2023/12/25 08:50:20;;;;;;;5.50;2.20;;;;;;;17.45;36.96;98403.18;106060;1256;60467;-60
2023/12/25 08:52:48;;;;;;;9.40;5.90;;;;;;;17.47;37.03;98405.39;105320;1254;74782;-59
2023/12/25 08:55:15;;;;;;;6.10;2.20;;;;;;;17.49;37.15;98405.01;105343;1258;61325;-60
2023/12/25 08:57:43;;;;;;;4.40;1.30;;;;;;;17.58;37.00;98405.14;105335;1259;63691;-60
2023/12/25 09:00:11;;;;;;;7.40;3.80;;;;;;;17.72;36.90;98403.73;105331;1254;60566;-58
2023/12/25 09:02:39;;;;;;;5.10;1.60;;;;;;;17.77;36.83;98401.03;105503;1254;60552;-57
2023/12/25 09:05:07;;;;;;;7.00;4.00;;;;;;;17.76;37.01;98398.70;105446;1259;65416;-61
2023/12/25 09:07:35;;;;;;;6.10;2.90;;;;;;;17.78;37.18;98393.19;105543;1255;61251;-59
2023/12/25 09:10:06;;;;;;;6.50;3.80;;;;;;;17.79;37.05;98387.77;105368;1257;62558;-59
2023/12/25 09:12:34;;;;;;;4.00;1.40;;;;;;;17.83;37.14;98391.43;105696;1259;60543;-60
2023/12/25 09:15:04;;;;;;;5.40;1.70;;;;;;;17.92;37.03;98395.80;105326;1253;60569;-60
2023/12/25 09:17:32;;;;;;;4.40;1.60;;;;;;;18.01;36.95;98395.50;105672;1258;65414;-59
2023/12/25 09:20:00;;;;;;;6.80;3.10;;;;;;;18.13;36.88;98395.31;105409;1254;61381;-58
2023/12/25 09:22:28;;;;;;;4.70;1.40;;;;;;;18.19;36.98;98398.33;105656;1254;63755;-59
2023/12/25 09:24:56;;;;;;;6.30;3.30;;;;;;;18.23;36.97;98397.82;105750;1259;60694;-58
2023/12/25 09:27:24;;;;;;;6.10;1.80;;;;;;;18.25;36.96;98392.29;105371;1253;61230;-58
2023/12/25 09:29:53;;;;;;;6.40;3.00;;;;;;;18.27;36.93;98390.14;105934;1253;63705;-59
2023/12/25 09:32:21;;;;;;;5.90;1.60;;;;;;;18.28;36.92;98385.48;106699;1255;72096;-58
2023/12/25 09:34:49;;;;;;;6.80;3.20;;;;;;;18.35;36.86;98390.33;106014;1254;63870;-58
2023/12/25 09:37:25;;;;;;;6.40;1.20;;;;;;;18.38;36.70;98392.39;105200;1260;61655;-60
2023/12/25 09:39:54;;;;;;;5.80;2.80;;;;;;;18.42;36.65;98393.20;105318;1254;60512;-60
2023/12/25 09:42:21;;;;;;;3.70;1.40;;;;;;;18.46;36.78;98401.55;105856;1256;64909;-59
2023/12/25 09:44:50;;;;;;;6.90;3.80;;;;;;;18.44;36.81;98395.55;106086;1257;60397;-60
2023/12/25 09:47:18;;;;;;;6.10;1.60;;;;;;;18.42;36.93;98403.20;105411;1254;63871;-58
2023/12/25 09:49:47;;;;;;;5.90;3.00;;;;;;;18.39;36.93;98404.90;105370;1256;60434;-57
2023/12/25 09:52:16;;;;;;;5.10;1.30;;;;;;;18.32;36.92;98409.11;105280;1256;281969;-55
2023/12/25 09:56:35;;;;;;;4.50;1.40;;;;;;;16.28;41.07;98417.29;102372;1293;600183;-59
2023/12/25 09:59:04;;;;;;;7.10;2.80;;;;;;;17.83;38.14;98406.17;104763;1267;59295;-60
2023/12/25 10:01:31;;;;;;;5.60;2.90;;;;;;;18.08;37.85;98407.64;104874;1272;59238;-59
2023/12/25 10:03:59;;;;;;;6.30;3.10;;;;;;;18.15;37.75;98407.52;104509;1266;62063;-60
2023/12/25 10:06:27;;;;;;;4.50;1.30;;;;;;;18.16;37.74;98414.69;105148;1269;60114;-59
2023/12/25 10:08:56;;;;;;;7.90;4.00;;;;;;;18.19;37.67;98411.63;104489;1270;62619;-60
2023/12/25 10:11:23;;;;;;;5.70;3.40;;;;;;;18.20;37.71;98415.10;105165;1266;220894;-59
2023/12/25 10:13:51;;;;;;;3.90;1.10;;;;;;;18.26;37.51;98419.63;104713;1270;61001;-62
2023/12/25 10:16:18;;;;;;;7.00;3.70;;;;;;;18.33;37.39;98414.93;104684;1264;63896;-60
2023/12/25 10:18:47;;;;;;;5.90;3.50;;;;;;;18.43;37.43;98418.05;104885;1263;61344;-62
2023/12/25 10:21:15;;;;;;;2.80;1.00;;;;;;;18.50;37.39;98414.08;104794;1270;63815;-64
2023/12/25 10:23:44;;;;;;;7.80;3.50;;;;;;;18.56;37.32;98405.58;104826;1264;59759;-60
2023/12/25 10:26:12;;;;;;;7.40;3.60;;;;;;;18.59;37.31;98407.29;104899;1269;59279;-61
2023/12/25 10:28:39;;;;;;;4.00;1.20;;;;;;;18.57;37.42;98405.39;104797;1270;64780;-61
2023/12/25 10:31:07;;;;;;;9.30;3.20;;;;;;;18.67;37.29;98403.96;104830;1267;61511;-59
2023/12/25 10:33:35;;;;;;;6.30;2.90;;;;;;;18.79;37.21;98402.21;104988;1268;64277;-63
2023/12/25 10:36:06;;;;;;;6.00;2.80;;;;;;;18.87;37.26;98397.63;105891;1260;59640;-60
2023/12/25 10:38:44;;;;;;;4.10;1.20;;;;;;;18.89;37.38;98396.83;105180;1266;59634;-58
2023/12/25 10:41:19;;;;;;;5.00;2.90;;;;;;;18.83;37.46;98395.59;104970;1261;64614;-60
2023/12/25 10:43:54;;;;;;;4.20;1.30;;;;;;;18.80;38.04;98399.10;104961;1266;60083;-61
2023/12/25 10:46:25;;;;;;;5.00;2.40;;;;;;;18.86;38.15;98401.09;104913;1266;62612;-59
2023/12/25 10:48:55;;;;;;;5.00;2.20;;;;;;;18.97;37.96;98394.14;104868;1266;59858;-60
2023/12/25 10:51:32;;;;;;;2.60;0.60;;;;;;;19.08;37.89;98388.73;105434;1266;59666;-60
2023/12/25 10:54:01;;;;;;;7.40;2.30;;;;;;;19.17;37.83;98391.15;105016;1263;64227;-61
2023/12/25 10:56:33;;;;;;;4.70;2.30;;;;;;;19.23;37.86;98386.92;105474;1263;60252;-58
2023/12/25 10:59:24;;;;;;;4.80;1.90;;;;;;;19.19;38.04;98386.83;105240;1265;62864;-61
2023/12/25 11:01:54;;;;;;;4.00;1.60;;;;;;;19.40;37.84;98384.04;105424;1266;59678;-57
2023/12/25 11:04:23;;;;;;;3.90;1.60;;;;;;;19.57;37.60;98381.24;105455;1261;59665;-58
2023/12/25 11:06:51;;;;;;;5.10;1.70;;;;;;;19.69;37.42;98386.07;105549;1266;64296;-59
2023/12/25 11:09:20;;;;;;;5.00;2.30;;;;;;;19.81;37.12;98397.60;105506;1267;60575;-63
2023/12/25 11:11:47;;;;;;;4.40;1.70;;;;;;;19.83;37.07;98398.88;105169;1261;62624;-61
2023/12/25 11:14:16;;;;;;;2.90;0.70;;;;;;;19.86;37.01;98403.15;105362;1257;60194;-59
2023/12/25 11:16:44;;;;;;;4.30;1.50;;;;;;;19.92;36.82;98410.00;105299;1257;59704;-60
2023/12/25 11:19:11;;;;;;;3.80;1.50;;;;;;;19.98;36.64;98402.66;105094;1256;74007;-73
2023/12/25 11:21:39;;;;;;;4.50;1.80;;;;;;;19.96;36.54;98409.30;105217;1263;60237;-70
2023/12/25 11:24:07;;;;;;;4.60;2.30;;;;;;;19.96;36.57;98415.29;105195;1263;62459;-68
2023/12/25 11:26:35;;;;;;;7.90;3.70;;;;;;;19.98;36.42;98413.13;105479;1257;59730;-66
2023/12/25 11:29:07;;;;;;;6.70;1.90;;;;;;;20.01;36.44;98413.35;105197;1258;59947;-71
2023/12/25 11:31:42;;;;;;;5.80;3.20;;;;;;;20.02;36.43;98412.27;105268;1260;62876;-71